createdAt,value
2019-05-26T00:00:58.320Z,59.17
2019-05-26T00:03:24.831Z,59.49
2019-05-26T00:05:51.724Z,60.54
2019-05-26T00:08:18.421Z,60.82
2019-05-26T00:10:45.289Z,60.41
2019-05-26T00:13:11.926Z,60.70
2019-05-26T00:15:38.564Z,60.59
2019-05-26T00:18:05.439Z,60.33
2019-05-26T00:20:32.049Z,60.08
2019-05-26T00:22:59.273Z,60.11
2019-05-26T00:25:25.872Z,59.66
2019-05-26T00:27:52.364Z,59.76
2019-05-26T00:30:19.104Z,59.90
2019-05-26T00:32:45.824Z,60.67
2019-05-26T00:35:12.941Z,61.00
2019-05-26T00:37:49.186Z,61.42
2019-05-26T00:40:08.321Z,61.35
2019-05-26T00:42:34.973Z,61.27
2019-05-26T00:45:01.694Z,61.09
2019-05-26T00:47:28.543Z,61.46
2019-05-26T00:49:55.529Z,61.96
2019-05-26T00:52:22.195Z,61.95
2019-05-26T00:54:48.789Z,62.03
2019-05-26T00:57:15.631Z,62.05
2019-05-26T00:59:42.556Z,62.64
2019-05-26T01:02:09.662Z,62.58
2019-05-26T01:04:36.242Z,62.48
2019-05-26T01:07:04.151Z,62.12
2019-05-26T01:09:30.719Z,61.69
2019-05-26T01:11:57.609Z,61.81
2019-05-26T01:14:24.744Z,61.92
2019-05-26T01:16:55.435Z,62.29
2019-05-26T01:19:20.051Z,62.54
2019-05-26T01:21:46.779Z,62.02
2019-05-26T01:24:13.751Z,62.07
2019-05-26T01:26:40.377Z,61.69
2019-05-26T01:29:07.253Z,61.54
2019-05-26T01:31:33.895Z,61.47
2019-05-26T01:34:02.406Z,61.44
2019-05-26T01:36:29.235Z,61.38
2019-05-26T01:38:55.879Z,61.36
2019-05-26T01:41:22.596Z,61.72
2019-05-26T01:43:49.460Z,61.92
2019-05-26T01:46:16.216Z,62.20
2019-05-26T01:48:42.939Z,62.71
2019-05-26T01:51:09.871Z,62.89
2019-05-26T01:53:36.565Z,62.93
2019-05-26T01:56:03.344Z,63.26
2019-05-26T01:58:32.102Z,63.32
2019-05-26T02:00:59.966Z,63.09
2019-05-26T02:03:26.733Z,63.21
2019-05-26T02:05:53.516Z,62.93
2019-05-26T02:08:20.249Z,62.55
2019-05-26T02:10:46.881Z,62.13
2019-05-26T02:13:13.568Z,61.93
2019-05-26T02:15:40.560Z,62.36
2019-05-26T02:18:07.285Z,62.65
2019-05-26T02:20:34.351Z,62.66
2019-05-26T02:23:01.214Z,62.65
2019-05-26T02:25:28.251Z,62.75
2019-05-26T02:27:55.084Z,63.42
2019-05-26T02:30:21.751Z,63.44
2019-05-26T02:32:48.678Z,62.75
2019-05-26T02:35:15.538Z,62.59
2019-05-26T02:37:42.259Z,62.84
2019-05-26T02:40:08.940Z,63.15
2019-05-26T02:42:35.773Z,63.52
2019-05-26T02:45:02.433Z,63.51
2019-05-26T02:47:29.362Z,63.60
2019-05-26T02:49:56.239Z,63.38
2019-05-26T02:52:23.133Z,63.10
2019-05-26T02:54:49.792Z,63.32
2019-05-26T02:57:16.542Z,63.35
2019-05-26T02:59:43.825Z,63.15
2019-05-26T03:02:10.686Z,62.98
2019-05-26T03:04:37.655Z,63.10
2019-05-26T03:07:04.612Z,63.11
2019-05-26T03:09:31.622Z,63.35
2019-05-26T03:11:59.502Z,63.62
2019-05-26T03:14:26.170Z,63.73
2019-05-26T03:16:53.214Z,64.04
2019-05-26T03:19:19.952Z,64.04
2019-05-26T03:21:46.682Z,64.22
2019-05-26T03:24:13.660Z,64.26
2019-05-26T03:26:40.315Z,64.70
2019-05-26T03:29:07.266Z,64.81
2019-05-26T03:31:33.956Z,64.11
2019-05-26T03:34:01.077Z,63.74
2019-05-26T03:36:28.137Z,63.44
2019-05-26T03:38:55.164Z,63.49
2019-05-26T03:41:22.181Z,63.95
2019-05-26T03:43:48.904Z,64.65
2019-05-26T03:46:15.612Z,65.23
2019-05-26T03:48:42.459Z,65.06
2019-05-26T03:51:09.605Z,64.33
2019-05-26T03:53:36.285Z,63.85
2019-05-26T03:56:03.043Z,62.53
2019-05-26T03:58:29.724Z,62.16
2019-05-26T04:00:56.392Z,61.40
2019-05-26T04:03:23.234Z,62.14
2019-05-26T04:05:49.931Z,61.93
2019-05-26T04:08:16.586Z,61.16
2019-05-26T04:10:43.264Z,60.75
2019-05-26T04:13:09.949Z,60.51
2019-05-26T04:15:36.604Z,61.23
2019-05-26T04:18:03.453Z,60.78
2019-05-26T04:20:30.362Z,60.91
2019-05-26T04:22:57.012Z,61.33
2019-05-26T04:25:24.126Z,60.94
2019-05-26T04:27:50.772Z,61.02
2019-05-26T04:30:18.710Z,59.95
2019-05-26T04:32:45.387Z,60.54
2019-05-26T04:35:12.062Z,60.88
2019-05-26T04:37:38.736Z,60.98
2019-05-26T04:40:25.010Z,60.66
2019-05-26T04:42:34.179Z,60.35
2019-05-26T04:45:00.847Z,60.11
2019-05-26T04:47:27.798Z,59.76
2019-05-26T04:49:54.455Z,58.91
2019-05-26T04:52:21.124Z,58.93
2019-05-26T04:54:47.892Z,59.61
2019-05-26T04:57:14.539Z,59.92
2019-05-26T04:59:41.488Z,59.91
2019-05-26T05:02:08.311Z,59.70
2019-05-26T05:04:34.950Z,59.62
2019-05-26T05:07:01.899Z,59.31
2019-05-26T05:09:28.745Z,58.53
2019-05-26T05:11:55.413Z,59.34
2019-05-26T05:14:22.027Z,59.22
2019-05-26T05:16:50.142Z,59.74
2019-05-26T05:19:17.645Z,58.99
2019-05-26T05:21:44.501Z,57.86
2019-05-26T05:24:11.562Z,57.17
2019-05-26T05:26:38.302Z,57.17
2019-05-26T05:29:05.268Z,56.77
2019-05-26T05:31:32.054Z,56.81
2019-05-26T05:33:58.662Z,57.17
2019-05-26T05:36:25.308Z,55.28
2019-05-26T05:38:52.755Z,55.17
2019-05-26T05:41:19.443Z,54.09
2019-05-26T05:43:46.257Z,54.40
2019-05-26T05:46:13.251Z,54.33
2019-05-26T05:48:39.893Z,52.53
2019-05-26T05:51:06.829Z,50.87
2019-05-26T05:53:33.801Z,50.39
2019-05-26T05:56:00.690Z,50.61
2019-05-26T05:58:27.688Z,51.30
2019-05-26T06:00:54.707Z,52.22
2019-05-26T06:03:21.663Z,52.26
2019-05-26T06:05:48.291Z,52.75
2019-05-26T06:08:15.056Z,52.86
2019-05-26T06:10:41.780Z,52.33
2019-05-26T06:13:09.916Z,51.60
2019-05-26T06:15:36.616Z,52.03
2019-05-26T06:18:03.614Z,52.38
2019-05-26T06:20:30.413Z,52.16
2019-05-26T06:22:57.473Z,51.10
2019-05-26T06:25:24.732Z,50.97
2019-05-26T06:27:51.743Z,50.86
2019-05-26T06:30:21.818Z,49.28
2019-05-26T06:32:48.358Z,48.58
2019-05-26T06:35:14.979Z,48.36
2019-05-26T06:37:44.263Z,48.10
2019-05-26T06:40:10.841Z,48.11
2019-05-26T06:42:37.460Z,48.50
2019-05-26T06:45:05.015Z,47.28
2019-05-26T06:47:31.789Z,47.55
2019-05-26T06:49:58.717Z,45.16
2019-05-26T06:52:25.546Z,45.78
2019-05-26T06:54:52.500Z,46.56
2019-05-26T06:57:20.613Z,47.29
2019-05-26T06:59:48.298Z,47.62
2019-05-26T07:02:16.839Z,46.22
2019-05-26T07:04:43.774Z,44.67
2019-05-26T07:07:10.778Z,44.47
2019-05-26T07:09:37.758Z,44.32
2019-05-26T07:12:04.804Z,44.25
2019-05-26T07:14:31.651Z,43.50
2019-05-26T07:16:58.657Z,44.04
2019-05-26T07:19:25.598Z,43.29
2019-05-26T07:21:52.649Z,43.44
2019-05-26T07:24:20.932Z,42.22
2019-05-26T07:26:47.839Z,43.13
2019-05-26T07:29:14.990Z,42.56
2019-05-26T07:31:41.903Z,40.95
2019-05-26T07:34:08.841Z,41.56
2019-05-26T07:36:36.361Z,41.99
2019-05-26T07:39:03.580Z,40.32
2019-05-26T07:41:30.560Z,40.47
2019-05-26T07:43:57.558Z,41.06
2019-05-26T07:46:24.476Z,40.16
2019-05-26T07:48:51.155Z,40.28
2019-05-26T07:51:18.620Z,40.18
2019-05-26T07:53:45.526Z,41.20
2019-05-26T07:56:12.453Z,40.54
2019-05-26T07:58:39.325Z,43.32
2019-05-26T08:01:06.382Z,41.06
2019-05-26T08:03:33.316Z,40.65
2019-05-26T08:06:00.836Z,41.42
2019-05-26T08:08:27.743Z,40.10
2019-05-26T08:10:54.694Z,41.21
2019-05-26T08:13:21.837Z,42.36
2019-05-26T08:15:48.461Z,41.23
2019-05-26T08:18:15.597Z,39.49
2019-05-26T08:20:42.586Z,40.38
2019-05-26T08:23:09.564Z,39.82
2019-05-26T08:25:38.041Z,40.40
2019-05-26T08:28:05.124Z,40.64
2019-05-26T08:30:32.064Z,40.75
2019-05-26T08:32:59.382Z,40.23
2019-05-26T08:35:26.400Z,40.81
2019-05-26T08:37:53.246Z,41.63
2019-05-26T08:40:20.247Z,39.92
2019-05-26T08:42:47.295Z,39.72
2019-05-26T08:45:14.580Z,39.18
2019-05-26T08:47:41.807Z,39.60
2019-05-26T08:50:08.880Z,40.04
2019-05-26T08:52:36.183Z,40.26
2019-05-26T08:55:03.134Z,38.35
2019-05-26T08:57:30.086Z,39.03
2019-05-26T08:59:57.315Z,38.41
2019-05-26T09:02:24.014Z,38.10
2019-05-26T09:04:51.020Z,37.66
2019-05-26T09:07:17.722Z,38.27
2019-05-26T09:09:44.697Z,38.49
2019-05-26T09:12:11.942Z,36.89
2019-05-26T09:14:38.885Z,36.13
2019-05-26T09:17:05.837Z,36.64
2019-05-26T09:19:32.946Z,38.09
2019-05-26T09:21:59.878Z,38.43
2019-05-26T09:24:26.591Z,37.66
2019-05-26T09:26:53.565Z,35.42
2019-05-26T09:29:20.458Z,36.56
2019-05-26T09:31:47.184Z,36.46
2019-05-26T09:34:17.823Z,36.66
2019-05-26T09:36:44.748Z,37.08
2019-05-26T09:39:11.830Z,36.87
2019-05-26T09:41:39.269Z,35.81
2019-05-26T09:44:06.209Z,36.68
2019-05-26T09:46:33.184Z,36.77
2019-05-26T09:49:01.035Z,36.45
2019-05-26T09:51:27.891Z,34.78
2019-05-26T09:54:01.792Z,35.55
2019-05-26T09:56:25.321Z,35.98
2019-05-26T09:58:52.240Z,35.84
2019-05-26T10:01:19.273Z,34.66
2019-05-26T10:03:46.388Z,35.56
2019-05-26T10:06:13.099Z,35.16
2019-05-26T10:08:40.077Z,35.66
2019-05-26T10:11:07.100Z,35.13
2019-05-26T10:13:34.022Z,35.55
2019-05-26T10:16:00.692Z,35.90
2019-05-26T10:18:27.642Z,34.81
2019-05-26T10:20:57.043Z,33.99
2019-05-26T10:23:24.885Z,33.28
2019-05-26T10:25:53.062Z,34.46
2019-05-26T10:28:22.902Z,33.95
2019-05-26T10:30:49.955Z,34.13
2019-05-26T10:33:17.061Z,35.21
2019-05-26T10:35:44.279Z,35.16
2019-05-26T10:38:11.416Z,32.99
2019-05-26T10:40:38.316Z,33.88
2019-05-26T10:43:05.206Z,35.08
2019-05-26T10:45:34.263Z,35.31
2019-05-26T10:48:00.840Z,34.57
2019-05-26T10:50:27.972Z,34.73
2019-05-26T10:52:55.187Z,35.99
2019-05-26T10:55:21.865Z,36.48
2019-05-26T10:57:48.740Z,35.89
2019-05-26T11:00:15.656Z,34.70
2019-05-26T11:02:42.582Z,35.54
2019-05-26T11:05:09.750Z,34.07
2019-05-26T11:07:36.626Z,35.50
2019-05-26T11:10:03.675Z,33.98
2019-05-26T11:12:30.594Z,35.18
2019-05-26T11:14:57.475Z,35.37
2019-05-26T11:17:25.985Z,33.09
2019-05-26T11:19:53.231Z,33.83
2019-05-26T11:22:19.971Z,33.83
2019-05-26T11:24:47.665Z,33.55
2019-05-26T11:27:15.622Z,34.16
2019-05-26T11:29:42.613Z,33.40
2019-05-26T11:32:09.747Z,34.47
2019-05-26T11:34:36.711Z,31.16
2019-05-26T11:37:03.718Z,32.69
2019-05-26T11:39:30.751Z,32.65
2019-05-26T11:44:27.352Z,31.72
2019-05-26T11:46:54.585Z,32.64
2019-05-26T11:49:21.737Z,32.02
2019-05-26T11:51:48.616Z,31.42
2019-05-26T11:54:15.573Z,32.00
2019-05-26T11:56:42.462Z,31.37
2019-05-26T11:59:09.361Z,32.50
2019-05-26T12:01:36.129Z,33.09
2019-05-26T12:04:03.259Z,33.31
2019-05-26T12:06:30.130Z,32.92
2019-05-26T12:08:57.111Z,32.25
2019-05-26T12:11:24.288Z,30.66
2019-05-26T12:13:51.181Z,30.08
2019-05-26T12:16:18.540Z,32.25
2019-05-26T12:18:45.452Z,31.77
2019-05-26T12:21:12.567Z,31.70
2019-05-26T12:23:39.476Z,31.42
2019-05-26T12:26:06.363Z,30.69
2019-05-26T12:28:33.246Z,31.38
2019-05-26T12:31:00.307Z,31.34
2019-05-26T12:33:26.954Z,30.32
2019-05-26T12:35:53.844Z,29.95
2019-05-26T12:38:22.651Z,29.48
2019-05-26T12:40:49.586Z,28.05
2019-05-26T12:43:16.475Z,29.43
2019-05-26T12:45:43.531Z,30.81
2019-05-26T12:48:10.405Z,29.32
2019-05-26T12:50:37.591Z,29.25
2019-05-26T12:53:04.727Z,27.33
2019-05-26T12:55:31.566Z,29.76
2019-05-26T12:57:58.467Z,30.42
2019-05-26T13:00:26.129Z,29.47
2019-05-26T13:02:53.021Z,28.32
2019-05-26T13:05:19.885Z,28.64
2019-05-26T13:07:46.649Z,30.05
2019-05-26T13:10:13.545Z,29.12
2019-05-26T13:12:40.230Z,27.63
2019-05-26T13:17:44.631Z,27.75
2019-05-26T13:20:11.582Z,29.14
2019-05-26T13:22:38.811Z,28.53
2019-05-26T13:25:06.728Z,30.22
2019-05-26T13:27:33.615Z,29.56
2019-05-26T13:30:00.545Z,29.26
2019-05-26T13:32:27.437Z,29.46
2019-05-26T13:34:54.522Z,30.30
2019-05-26T13:37:21.453Z,30.85
2019-05-26T13:39:48.125Z,30.04
2019-05-26T13:42:24.900Z,31.60
2019-05-26T13:44:51.944Z,30.86
2019-05-26T13:47:26.136Z,31.04
2019-05-26T13:49:47.496Z,28.14
2019-05-26T13:52:14.386Z,28.49
2019-05-26T13:54:41.150Z,29.11
2019-05-26T13:57:08.041Z,28.93
2019-05-26T13:59:35.026Z,29.28
2019-05-26T14:02:02.046Z,29.30
2019-05-26T14:04:28.703Z,29.40
2019-05-26T14:06:55.676Z,29.47
2019-05-26T14:09:22.481Z,30.17
2019-05-26T14:11:49.105Z,30.64
2019-05-26T14:14:15.997Z,30.88
2019-05-26T14:16:42.644Z,31.33
2019-05-26T14:19:09.522Z,31.84
2019-05-26T14:21:36.413Z,32.27
2019-05-26T14:24:03.358Z,32.33
2019-05-26T14:26:30.278Z,31.46
2019-05-26T14:28:57.117Z,31.16
2019-05-26T14:31:24.017Z,32.17
2019-05-26T14:33:50.961Z,32.17
2019-05-26T14:36:17.868Z,32.40
2019-05-26T14:38:45.077Z,32.89
2019-05-26T14:41:11.907Z,32.76
2019-05-26T14:43:38.817Z,32.17
2019-05-26T14:46:05.593Z,32.18
2019-05-26T14:48:32.484Z,32.26
2019-05-26T14:50:59.105Z,32.97
2019-05-26T14:53:27.037Z,32.88
2019-05-26T14:55:53.871Z,32.48
2019-05-26T14:58:21.030Z,32.99
2019-05-26T15:00:51.639Z,32.35
2019-05-26T15:03:18.485Z,32.01
2019-05-26T15:05:45.374Z,30.84
2019-05-26T15:10:48.999Z,32.04
2019-05-26T15:13:15.994Z,32.66
2019-05-26T15:15:48.194Z,32.68
2019-05-26T15:18:14.898Z,31.85
2019-05-26T15:20:42.082Z,32.96
2019-05-26T15:23:13.487Z,32.81
2019-05-26T15:25:40.127Z,33.60
2019-05-26T15:28:07.300Z,32.92
2019-05-26T15:33:12.154Z,34.27
2019-05-26T15:35:39.023Z,34.33
2019-05-26T15:40:43.736Z,35.70
2019-05-26T15:43:13.125Z,35.58
2019-05-26T15:45:44.998Z,34.58
2019-05-26T15:48:11.893Z,34.25
2019-05-26T15:50:38.784Z,33.64
2019-05-26T15:55:44.294Z,32.16
2019-05-26T15:58:11.206Z,32.49
2019-05-26T16:00:42.373Z,32.82
2019-05-26T16:03:09.263Z,32.13
2019-05-26T16:05:38.048Z,32.53
2019-05-26T16:15:47.850Z,33.01
2019-05-26T16:18:14.732Z,32.46
2019-05-26T16:23:17.748Z,31.77
2019-05-26T16:25:44.736Z,32.05
2019-05-26T16:28:11.643Z,32.11
2019-05-26T16:30:38.239Z,31.63
2019-05-26T16:33:05.410Z,32.31
2019-05-26T16:35:32.091Z,31.66
2019-05-26T16:37:59.095Z,32.00
2019-05-26T16:40:25.982Z,32.32
2019-05-26T16:42:53.685Z,32.96
2019-05-26T16:45:20.310Z,33.27
2019-05-26T16:47:47.219Z,32.69
2019-05-26T16:50:15.050Z,33.25
2019-05-26T16:52:42.215Z,33.29
2019-05-26T16:55:09.075Z,33.18
2019-05-26T16:57:36.705Z,33.36
2019-05-26T17:00:03.571Z,33.46
2019-05-26T17:02:30.219Z,33.13
2019-05-26T17:04:57.801Z,33.25
2019-05-26T17:07:24.941Z,33.36
2019-05-26T17:09:51.843Z,33.73
2019-05-26T17:12:18.771Z,33.37
2019-05-26T17:14:46.364Z,33.44
2019-05-26T20:04:43.987Z,51.81
2019-05-26T20:07:10.700Z,51.80
2019-05-26T20:09:37.598Z,51.97
2019-05-26T20:12:04.270Z,52.16
2019-05-26T20:14:31.536Z,52.58
2019-05-26T20:16:58.518Z,52.65
2019-05-26T20:19:25.493Z,52.53
2019-05-26T20:21:52.411Z,52.41
2019-05-26T20:24:19.345Z,51.91
2019-05-26T20:26:45.973Z,52.10
2019-05-26T20:29:12.945Z,52.28
2019-05-26T20:31:39.901Z,52.48
2019-05-26T20:34:06.837Z,52.47
2019-05-26T20:36:33.762Z,52.75
2019-05-26T20:39:00.966Z,52.81
2019-05-26T20:41:27.692Z,52.60
2019-05-26T20:43:54.928Z,52.70
2019-05-26T20:46:22.685Z,52.97
2019-05-26T20:48:49.660Z,53.17
2019-05-26T20:51:16.591Z,53.31
2019-05-26T20:53:43.517Z,53.50
2019-05-26T20:56:10.196Z,53.39
2019-05-26T20:58:37.420Z,52.97
2019-05-26T21:01:04.425Z,53.12
2019-05-26T21:03:31.348Z,52.64
2019-05-26T21:05:58.066Z,52.63
2019-05-26T21:08:24.944Z,52.39
2019-05-26T21:10:51.695Z,52.54
2019-05-26T21:13:18.217Z,52.57
2019-05-26T21:15:44.864Z,52.87
2019-05-26T21:18:11.474Z,52.78
2019-05-26T21:20:38.036Z,52.90
2019-05-26T21:23:05.557Z,53.16
2019-05-26T21:25:32.204Z,53.46
2019-05-26T21:27:59.115Z,53.41
2019-05-26T21:30:26.718Z,53.45
2019-05-26T21:32:53.624Z,53.86
2019-05-26T21:35:21.404Z,54.05
2019-05-26T21:37:48.965Z,54.22
2019-05-26T21:40:16.186Z,54.35
2019-05-26T21:42:43.124Z,54.10
2019-05-26T21:45:10.531Z,54.09
2019-05-26T21:47:37.404Z,54.10
2019-05-26T21:50:04.327Z,53.98
2019-05-26T21:52:31.899Z,54.17
2019-05-26T21:54:59.108Z,53.92
2019-05-26T21:57:26.019Z,54.05
2019-05-26T21:59:53.087Z,53.94
2019-05-26T22:02:19.991Z,54.15
2019-05-26T22:04:46.913Z,54.20
2019-05-26T22:07:13.974Z,54.28
2019-05-26T22:09:41.232Z,54.53
2019-05-26T22:12:08.130Z,54.66
2019-05-26T22:14:35.076Z,55.10
2019-05-26T22:17:02.008Z,55.43
2019-05-26T22:19:28.960Z,55.37
2019-05-26T22:21:56.323Z,55.43
2019-05-26T22:24:22.940Z,55.93
2019-05-26T22:29:16.923Z,56.10
2019-05-26T22:31:43.913Z,56.20
2019-05-26T22:34:10.801Z,57.22
2019-05-26T22:36:38.201Z,57.31
2019-05-26T22:39:05.102Z,56.70
2019-05-26T22:41:32.016Z,56.34
2019-05-26T22:43:59.912Z,56.34
2019-05-26T22:46:27.107Z,56.61
2019-05-26T22:48:54.061Z,56.70
2019-05-26T22:51:21.547Z,56.91
2019-05-26T22:53:48.506Z,57.40
2019-05-26T22:56:15.395Z,57.69
2019-05-26T22:58:42.397Z,57.57
2019-05-26T23:01:09.606Z,57.68
2019-05-26T23:03:36.508Z,58.00
2019-05-26T23:06:04.567Z,57.35
2019-05-26T23:08:31.479Z,57.63
2019-05-26T23:10:58.428Z,58.07
2019-05-26T23:13:25.894Z,58.36
2019-05-26T23:15:52.534Z,58.61
2019-05-26T23:18:19.460Z,58.32
2019-05-26T23:20:47.798Z,58.38
2019-05-26T23:23:15.018Z,58.17
2019-05-26T23:25:41.900Z,57.92
2019-05-26T23:28:09.709Z,58.05
2019-05-26T23:30:36.643Z,58.03
2019-05-26T23:33:03.579Z,58.37
2019-05-26T23:35:31.746Z,58.69
2019-05-26T23:37:58.654Z,58.58
2019-05-26T23:40:25.593Z,59.13
2019-05-26T23:42:52.274Z,59.71
2019-05-26T23:45:19.200Z,59.64
2019-05-26T23:47:46.023Z,59.36
2019-05-26T23:50:14.222Z,59.21
2019-05-26T23:52:41.152Z,58.90
2019-05-26T23:55:07.915Z,58.81
2019-05-26T23:57:35.166Z,58.75
